Time;durP1;ratioP1;P1;durP2;ratioP2;P2;SDS_P1;SDS_P2;PMS_P1;PMS_P2;Temp;Humidity;BMP_temperature;BMP_pressure;BME280_temperature;BME280_humidity;BME280_pressure;Samples;Min_cycle;Max_cycle;Signal;HPM_P1;HPM_P2
2022/04/19 00:01:20;;;;;;;7.80;4.13;;;;;;;3.59;100.00;98606.00;5096803;28;20497;-89
2022/04/19 00:03:45;;;;;;;5.93;3.73;;;;;;;4.34;100.00;98716.28;5095184;28;20726;-88
2022/04/19 00:06:11;;;;;;;4.93;3.40;;;;;;;5.66;100.00;98943.63;5097625;28;20156;-88
2022/04/19 00:08:36;;;;;;;6.40;3.87;;;;;;;1.44;100.00;98265.97;5098512;28;20176;-90
2022/04/19 00:11:03;;;;;;;6.40;3.93;;;;;;;2.47;100.00;98411.06;5100266;28;20221;-88
2022/04/19 00:13:30;;;;;;;5.73;3.80;;;;;;;3.92;100.00;98639.59;5098365;28;20235;-87
2022/04/19 00:15:56;;;;;;;5.97;4.20;;;;;;;5.23;100.00;98879.31;5096018;28;20413;-88
2022/04/19 00:18:22;;;;;;;6.00;4.13;;;;;;;1.11;100.00;98161.75;5095844;28;20406;-88
2022/04/19 00:20:49;;;;;;;5.73;3.93;;;;;;;3.05;100.00;98493.59;5098604;28;20497;-88
2022/04/19 00:23:15;;;;;;;6.33;4.33;;;;;;;4.89;100.00;98831.38;5098652;28;20842;-88
2022/04/19 00:25:42;;;;;;;6.60;4.10;;;;;;;3.80;100.00;98682.28;5093810;28;20921;-89
2022/04/19 00:28:09;;;;;;;6.53;4.10;;;;;;;4.10;100.00;98726.63;5095760;28;20486;-85
2022/04/19 00:30:34;;;;;;;5.47;3.67;;;;;;;5.34;100.00;99006.22;5093147;28;20405;-89
2022/04/19 00:33:00;;;;;;;5.87;3.83;;;;;;;2.33;100.00;98477.66;5094143;28;20819;-88
2022/04/19 00:35:28;;;;;;;6.50;4.27;;;;;;;4.03;100.00;98736.22;5093376;28;20224;-88
2022/04/19 00:37:53;;;;;;;6.60;4.30;;;;;;;1.89;100.00;98380.13;5093842;28;20194;-88
2022/04/19 00:40:19;;;;;;;6.13;4.27;;;;;;;3.01;100.00;98613.34;5092943;28;20411;-88
2022/04/19 00:42:44;;;;;;;6.93;4.27;;;;;;;2.73;100.00;98539.22;5093397;28;20175;-88
2022/04/19 00:45:10;;;;;;;7.37;4.03;;;;;;;4.53;100.00;98867.75;5094886;28;20187;-88
2022/04/19 00:47:38;;;;;;;6.43;4.17;;;;;;;3.15;100.00;98650.03;5094873;28;20565;-88
2022/04/19 00:50:04;;;;;;;6.60;4.40;;;;;;;2.75;100.00;98547.66;5095378;28;20168;-88
2022/04/19 00:52:34;;;;;;;6.40;4.40;;;;;;;5.35;100.00;98981.25;5094275;28;20410;-88
2022/04/19 00:55:01;;;;;;;7.90;4.70;;;;;;;3.24;100.00;98591.41;5094182;28;20413;-88
2022/04/19 00:57:27;;;;;;;9.07;4.87;;;;;;;4.50;100.00;98811.59;5093629;28;20453;-87
2022/04/19 00:59:54;;;;;;;10.63;5.93;;;;;;;5.60;100.00;98970.06;5101308;28;20411;-87
2022/04/19 01:02:21;;;;;;;16.77;9.13;;;;;;;5.64;100.00;98966.94;5098801;28;20473;-87
2022/04/19 01:04:47;;;;;;;11.40;6.20;;;;;;;5.26;100.00;98897.91;5093869;28;20457;-87
2022/04/19 01:07:12;;;;;;;7.90;4.97;;;;;;;2.02;100.00;98344.28;5093503;28;20471;-90
2022/04/19 01:09:38;;;;;;;7.33;4.50;;;;;;;4.97;100.00;98850.25;5094669;28;20227;-88
2022/04/19 01:14:50;;;;;;;9.40;5.20;;;;;;;3.04;100.00;98499.41;5094679;28;20165;-88
2022/04/19 01:17:16;;;;;;;9.70;5.80;;;;;;;3.82;100.00;98645.69;5093085;28;20505;-88
2022/04/19 01:19:42;;;;;;;22.73;11.53;;;;;;;4.66;100.00;98786.63;5093423;28;20455;-87
2022/04/19 01:22:12;;;;;;;20.07;10.17;;;;;;;2.13;100.00;98336.66;5082686;28;20269;-88
2022/04/19 01:24:39;;;;;;;13.67;7.70;;;;;;;2.71;100.00;98434.97;5072539;28;20462;-89
2022/04/19 01:27:05;;;;;;;8.93;5.03;;;;;;;2.62;100.00;98415.31;5072591;28;20418;-88
2022/04/19 01:29:33;;;;;;;9.33;5.27;;;;;;;3.76;100.00;98562.78;5072310;28;20402;-89
2022/04/19 01:32:00;;;;;;;17.47;7.60;;;;;;;2.48;100.00;98348.69;5072423;28;20403;-89
2022/04/19 01:34:27;;;;;;;14.37;8.40;;;;;;;2.47;100.00;98354.47;5072059;28;20398;-88
2022/04/19 01:36:52;;;;;;;17.37;9.40;;;;;;;3.78;100.00;98577.88;5105691;28;20493;-88
2022/04/19 01:40:16;;;;;;;10.73;7.03;;;;;;;3.87;100.00;98583.41;5072000;28;20457;-87
2022/04/19 01:42:05;;;;;;;13.70;8.03;;;;;;;6.09;100.00;98964.47;5073147;28;20180;-87
2022/04/19 01:44:33;;;;;;;13.90;8.43;;;;;;;3.60;100.00;98577.66;5071657;28;20455;-87
2022/04/19 01:47:05;;;;;;;13.07;8.33;;;;;;;5.17;100.00;98819.59;5071735;28;20457;-87
2022/04/19 01:49:31;;;;;;;13.13;7.83;;;;;;;4.82;100.00;98791.72;5073432;28;20417;-87
2022/04/19 01:51:56;;;;;;;13.67;7.37;;;;;;;3.85;100.00;98618.34;5074817;28;20889;-87
2022/04/19 01:54:21;;;;;;;10.60;6.13;;;;;;;4.18;100.00;98662.81;5073228;28;20173;-87
2022/04/19 01:56:48;;;;;;;9.70;5.87;;;;;;;3.94;100.00;98600.47;5078332;28;20188;-89
2022/04/19 01:59:13;;;;;;;10.63;6.27;;;;;;;2.58;100.00;98378.44;5074500;28;20204;-88
2022/04/19 02:01:38;;;;;;;10.40;6.23;;;;;;;4.05;100.00;98705.47;5074528;28;20415;-88
2022/04/19 02:04:04;;;;;;;10.10;6.30;;;;;;;5.03;100.00;98835.53;5073865;28;20225;-88
2022/04/19 02:06:30;;;;;;;10.17;6.30;;;;;;;1.16;100.00;98173.72;5074070;28;20621;-88
2022/04/19 02:08:56;;;;;;;10.90;6.40;;;;;;;4.46;100.00;98704.44;5074721;28;20191;-88
2022/04/19 02:11:23;;;;;;;10.83;5.80;;;;;;;3.64;100.00;98603.75;5074350;28;20417;-88
2022/04/19 02:13:50;;;;;;;8.73;5.20;;;;;;;5.32;100.00;98807.91;5075475;28;20185;-89
2022/04/19 02:16:17;;;;;;;8.13;5.10;;;;;;;6.14;100.00;98932.03;5073470;28;20518;-87
2022/04/19 02:18:43;;;;;;;7.87;5.20;;;;;;;6.14;100.00;98998.25;5075388;28;20492;-88
2022/04/19 02:21:08;;;;;;;7.77;4.90;;;;;;;6.20;100.00;98953.34;5107483;28;20531;-88
2022/04/19 02:23:35;;;;;;;8.47;4.87;;;;;;;2.47;100.00;98349.50;5073518;28;20260;-87
2022/04/19 02:26:01;;;;;;;8.97;4.73;;;;;;;4.13;100.00;98650.81;5074958;28;20152;-88
2022/04/19 02:28:27;;;;;;;6.87;4.27;;;;;;;5.59;100.00;98975.84;5076867;28;20406;-89
2022/04/19 02:30:52;;;;;;;9.43;4.73;;;;;;;1.76;100.00;98331.13;5078944;28;20165;-89
2022/04/19 02:33:18;;;;;;;12.33;5.10;;;;;;;4.80;100.00;98788.28;5131185;28;20261;-87
2022/04/19 02:35:43;;;;;;;10.33;5.13;;;;;;;2.78;100.00;98452.88;5097439;28;20204;-86
2022/04/19 02:38:09;;;;;;;9.43;5.00;;;;;;;3.27;100.00;98530.75;5079591;28;20191;-88
2022/04/19 02:40:35;;;;;;;9.63;5.63;;;;;;;5.68;100.00;98983.91;5075469;28;20171;-88
2022/04/19 02:43:00;;;;;;;11.07;5.70;;;;;;;1.56;100.00;98318.22;5075121;28;20880;-87
2022/04/19 02:45:26;;;;;;;12.13;6.10;;;;;;;2.01;100.00;98384.97;5075286;28;20199;-87
2022/04/19 02:48:06;;;;;;;10.87;6.30;;;;;;;5.33;100.00;98914.16;5076729;28;20168;-91
2022/04/19 02:50:42;;;;;;;16.50;8.90;;;;;;;4.99;100.00;98795.16;5075846;28;20176;-88
2022/04/19 02:53:08;;;;;;;9.73;5.87;;;;;;;4.52;100.00;98699.78;5080218;28;20441;-86
2022/04/19 02:55:33;;;;;;;8.33;5.50;;;;;;;4.55;100.00;98735.03;5074725;28;20407;-88
2022/04/19 02:57:59;;;;;;;8.57;5.23;;;;;;;2.19;100.00;98321.19;5075504;28;20201;-88
2022/04/19 03:00:24;;;;;;;7.23;4.73;;;;;;;4.18;100.00;98644.41;5076591;28;20169;-89
2022/04/19 03:02:51;;;;;;;7.10;4.23;;;;;;;4.37;100.00;98649.66;5075799;28;20761;-88
2022/04/19 03:05:20;;;;;;;7.23;4.40;;;;;;;3.38;100.00;98510.53;5076578;28;20203;-88
2022/04/19 03:07:46;;;;;;;5.87;4.33;;;;;;;3.93;100.00;98653.81;5075893;28;20407;-88
2022/04/19 03:10:12;;;;;;;8.00;5.20;;;;;;;2.75;100.00;98416.84;5109896;28;20425;-88
2022/04/19 03:12:38;;;;;;;6.70;4.40;;;;;;;4.44;100.00;98731.94;5076797;28;20415;-88
2022/04/19 03:15:04;;;;;;;10.60;6.17;;;;;;;5.05;100.00;98828.13;5076760;28;20207;-88
2022/04/19 03:17:30;;;;;;;7.20;4.47;;;;;;;5.42;100.00;98888.72;5076607;28;20176;-88
2022/04/19 03:19:55;;;;;;;7.63;4.80;;;;;;;4.81;100.00;98759.06;5079624;28;20171;-87
2022/04/19 03:22:20;;;;;;;44.83;20.53;;;;;;;3.21;100.00;98515.38;5079260;28;20180;-88
2022/04/19 03:27:42;;;;;;;10.50;7.57;;;;;;;3.75;100.00;98590.19;5076443;28;20167;-87
2022/04/19 03:30:09;;;;;;;9.30;6.47;;;;;;;4.39;100.00;98675.69;5079158;28;20404;-88
2022/04/19 03:32:36;;;;;;;10.63;7.23;;;;;;;2.98;100.00;98451.53;5076306;28;20407;-88
2022/04/19 03:35:02;;;;;;;11.37;7.97;;;;;;;5.94;100.00;98976.19;5075835;28;20446;-88
2022/04/19 03:37:29;;;;;;;9.37;6.40;;;;;;;3.62;100.00;98591.16;5075077;28;20426;-88
2022/04/19 03:39:55;;;;;;;10.67;6.33;;;;;;;6.02;100.00;98972.44;5074801;28;20796;-88
2022/04/19 03:42:21;;;;;;;12.10;7.30;;;;;;;2.12;100.00;98314.09;5076486;28;20430;-88
2022/04/19 03:44:46;;;;;;;10.20;8.00;;;;;;;3.88;100.00;98592.63;5076573;28;20208;-88
2022/04/19 03:47:12;;;;;;;53.83;28.43;;;;;;;2.12;100.00;98289.13;5079448;28;20630;-87
2022/04/19 03:49:39;;;;;;;35.87;20.20;;;;;;;2.10;100.00;98271.59;5077997;28;20220;-88
2022/04/19 03:52:06;;;;;;;23.97;12.33;;;;;;;2.33;100.00;98352.81;5076029;28;20207;-87
2022/04/19 03:54:34;;;;;;;24.13;12.07;;;;;;;3.49;100.00;98523.66;5075942;28;20407;-88
2022/04/19 03:57:01;;;;;;;24.37;14.37;;;;;;;3.08;100.00;98462.94;5077257;28;20411;-88
2022/04/19 03:59:27;;;;;;;11.97;7.30;;;;;;;3.78;100.00;98583.75;5076337;28;20882;-88
2022/04/19 04:01:52;;;;;;;10.30;6.27;;;;;;;3.62;100.00;98561.13;5077183;28;20406;-88
2022/04/19 04:04:17;;;;;;;12.27;7.03;;;;;;;1.84;100.00;98270.84;5075251;28;20843;-87
2022/04/19 04:06:43;;;;;;;9.00;5.63;;;;;;;4.98;100.00;98751.66;5108438;28;20173;-87
2022/04/19 04:09:08;;;;;;;12.43;7.37;;;;;;;4.58;100.00;98705.13;5078788;28;20218;-88
2022/04/19 04:11:37;;;;;;;10.03;6.57;;;;;;;3.46;100.00;98514.34;5077592;28;20171;-87
2022/04/19 04:14:02;;;;;;;12.20;7.90;;;;;;;2.10;100.00;98285.69;5074910;28;20183;-88
2022/04/19 04:16:28;;;;;;;15.23;10.20;;;;;;;3.42;100.00;98537.47;5074736;28;20415;-87
2022/04/19 04:18:53;;;;;;;19.07;11.13;;;;;;;4.22;100.00;98657.97;5075256;28;20173;-88
2022/04/19 04:21:19;;;;;;;20.40;10.97;;;;;;;4.35;100.00;98701.34;5075979;28;20925;-88
2022/04/19 04:23:44;;;;;;;25.37;15.60;;;;;;;1.79;100.00;98248.97;5075387;28;20220;-88
2022/04/19 04:26:09;;;;;;;36.60;21.57;;;;;;;2.54;100.00;98394.00;5074071;28;20235;-88
2022/04/19 04:28:35;;;;;;;15.97;10.57;;;;;;;4.18;100.00;98679.47;5074559;28;20189;-88
2022/04/19 04:31:00;;;;;;;20.10;11.53;;;;;;;4.76;100.00;98763.78;5074771;28;20204;-87
2022/04/19 04:33:26;;;;;;;23.47;14.83;;;;;;;2.73;100.00;98385.94;5074465;28;20169;-87
2022/04/19 04:35:51;;;;;;;37.50;23.50;;;;;;;2.83;100.00;98386.53;5107409;28;20195;-87
2022/04/19 04:38:17;;;;;;;48.70;28.43;;;;;;;3.21;100.00;98511.25;5074160;28;20583;-89
2022/04/19 04:40:42;;;;;;;31.63;17.67;;;;;;;2.64;100.00;98393.75;5074748;28;20240;-88
2022/04/19 04:43:08;;;;;;;19.60;12.30;;;;;;;3.74;100.00;98559.31;5073067;28;20697;-87
2022/04/19 04:45:33;;;;;;;18.73;10.67;;;;;;;5.09;100.00;98823.34;5106868;28;20282;-88
2022/04/19 04:50:42;;;;;;;21.77;14.17;;;;;;;4.79;100.00;98763.97;5074480;28;20230;-88
2022/04/19 04:53:08;;;;;;;14.30;8.30;;;;;;;5.73;100.00;98898.00;5073944;28;20406;-87
2022/04/19 04:55:33;;;;;;;15.03;9.63;;;;;;;4.18;100.00;98637.75;5073424;28;20553;-89
2022/04/19 04:58:01;;;;;;;15.13;9.27;;;;;;;4.14;100.00;98652.53;5072954;28;20181;-88
2022/04/19 05:00:28;;;;;;;15.43;9.80;;;;;;;5.75;100.00;98893.94;5072728;28;20176;-89
2022/04/19 05:02:54;;;;;;;20.87;11.97;;;;;;;4.68;100.00;98734.94;5072802;28;20916;-87
2022/04/19 05:05:20;;;;;;;10.60;6.97;;;;;;;1.71;100.00;98214.38;5085833;28;20484;-90
2022/04/19 05:07:49;;;;;;;17.33;10.90;;;;;;;2.22;100.00;98276.44;5108160;28;20442;-89
2022/04/19 05:10:15;;;;;;;28.77;15.07;;;;;;;4.91;100.00;98758.78;5106445;28;20179;-90
2022/04/19 05:12:41;;;;;;;14.30;8.33;;;;;;;2.26;100.00;98298.28;5106648;28;20414;-89
2022/04/19 05:15:07;;;;;;;17.20;10.83;;;;;;;3.03;100.00;98427.66;5098819;28;20389;-88
2022/04/19 05:17:36;;;;;;;10.37;6.17;;;;;;;2.79;100.00;98344.69;5100669;28;20425;-89
2022/04/19 05:20:10;;;;;;;17.93;8.77;;;;;;;2.44;100.00;98293.50;5105974;28;20493;-91
2022/04/19 05:22:36;;;;;;;16.30;9.53;;;;;;;4.07;100.00;98573.69;5109536;28;20864;-90
2022/04/19 05:25:01;;;;;;;16.20;9.27;;;;;;;2.16;100.00;98271.09;5108153;28;20446;-91
2022/04/19 05:27:27;;;;;;;8.67;6.10;;;;;;;2.63;100.00;98352.09;5103521;28;20167;-89
2022/04/19 05:29:53;;;;;;;15.53;11.30;;;;;;;4.23;100.00;98630.50;5104214;28;20183;-89
2022/04/19 05:32:18;;;;;;;26.40;18.23;;;;;;;2.62;100.00;98345.34;5108936;28;20187;-89
2022/04/19 05:34:44;;;;;;;63.40;35.50;;;;;;;3.81;100.00;98548.88;5115549;28;20160;-89
2022/04/19 05:37:09;;;;;;;42.37;25.17;;;;;;;2.92;99.59;98347.09;5112888;28;20247;-90
2022/04/19 05:39:38;;;;;;;24.93;14.77;;;;;;;3.42;99.15;98434.06;5103942;28;20251;-90
2022/04/19 05:42:23;;;;;;;15.90;8.87;;;;;;;3.53;98.22;98453.03;5106304;28;20259;-90
2022/04/19 05:44:55;;;;;;;18.50;11.30;;;;;;;7.16;97.76;99031.28;5063657;28;20501;-89
2022/04/19 05:47:21;;;;;;;24.40;12.33;;;;;;;7.27;97.45;99050.31;5064913;28;20523;-89
2022/04/19 05:49:46;;;;;;;34.33;21.47;;;;;;;4.92;94.95;98602.50;5066498;28;20919;-88
2022/04/19 05:52:13;;;;;;;29.07;16.63;;;;;;;5.08;94.02;98632.66;5060713;28;20176;-89
2022/04/19 05:54:38;;;;;;;36.77;25.30;;;;;;;5.83;91.54;98728.56;5074778;28;20185;-89
2022/04/19 05:57:04;;;;;;;11.90;7.93;;;;;;;5.42;92.51;98753.19;5066322;28;20497;-88
2022/04/19 05:59:29;;;;;;;7.23;4.87;;;;;;;6.83;96.12;99058.09;5082391;28;20239;-89
2022/04/19 06:05:00;;;;;;;15.00;9.40;;;;;;;3.73;94.33;98447.47;5083184;28;20220;-91
2022/04/19 06:07:30;;;;;;;8.30;5.97;;;;;;;7.73;92.23;99082.03;5063036;28;20625;-90
2022/04/19 06:09:56;;;;;;;6.33;4.57;;;;;;;5.35;90.17;98681.75;5083931;28;20456;-89
2022/04/19 06:12:22;;;;;;;6.67;5.00;;;;;;;3.24;89.12;98290.50;5048029;28;20599;-90
2022/04/19 06:14:47;;;;;;;13.67;9.90;;;;;;;3.51;89.27;98362.03;5052657;28;20943;-89
2022/04/19 06:17:14;;;;;;;15.30;9.80;;;;;;;3.57;91.71;98388.22;5085911;28;20858;-91
2022/04/19 06:19:41;;;;;;;20.47;12.93;;;;;;;3.59;90.87;98368.28;5084651;28;20272;-89
2022/04/19 06:22:13;;;;;;;16.97;9.40;;;;;;;7.63;89.92;99062.25;5087674;28;20429;-92
2022/04/19 06:24:39;;;;;;;6.80;3.93;;;;;;;3.54;87.67;98338.00;5090669;28;20454;-91
2022/04/19 06:27:05;;;;;;;9.80;5.50;;;;;;;5.44;88.63;98661.28;5083155;28;20511;-90
2022/04/19 06:29:31;;;;;;;20.13;11.90;;;;;;;6.27;88.87;98784.50;5085625;28;20177;-90
2022/04/19 06:31:57;;;;;;;16.60;10.17;;;;;;;5.64;89.10;98675.69;5090773;28;20164;-90
2022/04/19 06:34:22;;;;;;;12.13;6.67;;;;;;;4.04;87.13;98338.16;5091480;28;20161;-90
2022/04/19 06:36:48;;;;;;;19.57;10.93;;;;;;;3.85;86.40;98260.41;5089911;28;20414;-90
2022/04/19 06:39:14;;;;;;;13.53;7.90;;;;;;;3.97;85.80;98316.09;5090277;28;20248;-91
2022/04/19 06:41:41;;;;;;;14.40;10.57;;;;;;;4.06;83.92;98278.16;5092065;28;20199;-93
2022/04/19 06:44:08;;;;;;;28.47;18.33;;;;;;;7.30;83.17;98828.94;5092273;28;20260;-91
2022/04/19 06:46:36;;;;;;;11.97;7.80;;;;;;;7.54;79.13;98798.19;5088773;28;20922;-89
2022/04/19 06:49:02;;;;;;;19.50;11.27;;;;;;;7.35;79.80;98820.81;5085870;28;20244;-89
2022/04/19 06:51:29;;;;;;;14.57;8.53;;;;;;;6.44;81.31;98667.19;5082328;28;20215;-89
2022/04/19 06:53:56;;;;;;;28.13;13.67;;;;;;;5.29;80.40;98495.75;5084989;28;20173;-90
2022/04/19 06:56:22;;;;;;;7.53;4.60;;;;;;;8.30;83.15;99086.53;5089289;28;20160;-90
2022/04/19 06:58:49;;;;;;;7.20;4.20;;;;;;;8.04;83.75;99102.06;5092780;28;20184;-89
2022/04/19 07:01:14;;;;;;;9.07;3.87;;;;;;;6.62;83.12;98795.44;5089000;28;20166;-89
2022/04/19 07:03:40;;;;;;;5.83;4.00;;;;;;;5.36;82.86;98646.69;5084106;28;20546;-90
2022/04/19 07:06:08;;;;;;;7.63;4.83;;;;;;;7.39;87.44;99102.16;5110066;27;20743;-89
2022/04/19 07:08:34;;;;;;;6.77;4.77;;;;;;;4.52;90.84;98699.78;5100275;28;20180;-91
2022/04/19 07:11:00;;;;;;;7.43;4.80;;;;;;;2.16;89.75;98271.94;5101812;28;20460;-90
2022/04/19 07:13:26;;;;;;;7.30;5.30;;;;;;;3.13;89.01;98384.06;5099041;28;20172;-90
2022/04/19 07:15:53;;;;;;;9.47;4.97;;;;;;;4.36;91.01;98619.53;5100814;28;20464;-89
2022/04/19 07:18:22;;;;;;;46.50;21.17;;;;;;;3.13;88.42;98364.91;5103771;28;20406;-91
2022/04/19 07:29:01;;;;;;;25.37;14.23;;;;;;;8.60;85.01;99089.63;5099945;28;20401;-92
2022/04/19 07:31:27;;;;;;;13.40;7.07;;;;;;;7.60;85.18;98943.69;5098763;28;20432;-90
2022/04/19 07:33:52;;;;;;;7.40;5.07;;;;;;;6.80;85.72;98834.06;5096522;28;20402;-90
2022/04/19 07:36:19;;;;;;;8.40;5.77;;;;;;;4.31;86.49;98468.13;5095392;28;20634;-89
2022/04/19 07:38:44;;;;;;;16.73;9.17;;;;;;;5.90;87.90;98803.50;5097296;28;20241;-91
2022/04/19 07:41:10;;;;;;;12.00;6.40;;;;;;;3.26;87.62;98329.81;5097107;28;20914;-90
2022/04/19 07:43:35;;;;;;;15.90;8.80;;;;;;;7.77;88.93;99130.94;5096779;28;20176;-89
2022/04/19 07:46:02;;;;;;;9.00;5.87;;;;;;;4.65;88.65;98657.91;5098214;28;20160;-91
2022/04/19 07:48:27;;;;;;;11.63;7.47;;;;;;;5.31;89.51;98650.59;5096168;28;20168;-89
2022/04/19 07:50:53;;;;;;;16.17;11.80;;;;;;;2.95;87.09;98296.41;5095301;28;20489;-89
2022/04/19 07:53:18;;;;;;;14.83;8.40;;;;;;;8.24;84.58;99129.09;5094050;28;20337;-90
2022/04/19 07:55:44;;;;;;;11.40;7.17;;;;;;;6.60;83.61;98832.19;5095470;28;20171;-89
2022/04/19 07:58:09;;;;;;;10.43;6.90;;;;;;;6.50;81.69;98687.59;5098041;28;20163;-90
2022/04/19 08:00:36;;;;;;;8.73;6.73;;;;;;;4.67;80.60;98480.03;5096631;28;20272;-89
2022/04/19 08:03:02;;;;;;;7.00;4.87;;;;;;;5.96;79.85;98679.88;5094953;28;20584;-89
2022/04/19 08:05:27;;;;;;;8.07;5.90;;;;;;;6.32;78.59;98602.09;5095739;28;20446;-90
2022/04/19 08:07:52;;;;;;;19.90;13.03;;;;;;;6.46;76.75;98534.88;5085564;28;20266;-90
2022/04/19 08:10:19;;;;;;;12.53;7.90;;;;;;;5.62;76.12;98368.50;5098133;28;20195;-90
2022/04/19 08:12:45;;;;;;;9.77;5.60;;;;;;;5.97;74.51;98395.25;5095151;28;20168;-90
2022/04/19 08:15:11;;;;;;;7.10;5.07;;;;;;;6.96;73.82;98492.72;5095737;28;20190;-90
2022/04/19 08:17:37;;;;;;;16.93;10.43;;;;;;;10.36;75.92;99055.97;5095696;28;20208;-90
2022/04/19 08:20:07;;;;;;;9.00;6.63;;;;;;;9.64;74.66;99036.16;5095640;28;20494;-89
2022/04/19 08:22:33;;;;;;;8.93;5.40;;;;;;;6.31;73.90;98504.91;5094585;28;20167;-88
2022/04/19 08:25:00;;;;;;;12.27;7.53;;;;;;;4.61;75.21;98324.34;5093460;28;20192;-90
2022/04/19 08:27:25;;;;;;;9.20;6.73;;;;;;;6.30;73.52;98528.28;5096351;28;20166;-90
2022/04/19 08:29:51;;;;;;;10.20;7.10;;;;;;;6.64;75.88;98565.03;5103244;28;20200;-89
2022/04/19 08:32:16;;;;;;;9.83;5.53;;;;;;;9.94;74.48;99130.13;5116586;28;20184;-89
2022/04/19 08:34:42;;;;;;;7.97;6.07;;;;;;;9.28;73.49;98833.47;5110730;28;20280;-89
2022/04/19 08:37:09;;;;;;;9.30;6.50;;;;;;;8.40;70.63;98553.19;5098983;28;20172;-89
2022/04/19 08:39:34;;;;;;;11.80;7.73;;;;;;;11.95;68.67;99088.81;5095396;28;20176;-90
2022/04/19 08:42:00;;;;;;;8.33;6.30;;;;;;;9.20;68.78;98710.22;5095779;28;20170;-90
2022/04/19 08:44:25;;;;;;;14.57;9.20;;;;;;;8.76;71.10;98734.56;5084129;28;20204;-89
2022/04/19 08:46:55;;;;;;;12.47;7.80;;;;;;;8.39;72.72;98798.59;5094774;28;20187;-89
2022/04/19 08:49:21;;;;;;;9.87;6.60;;;;;;;6.56;76.75;98702.09;5095825;28;20518;-89
2022/04/19 08:51:47;;;;;;;9.97;6.80;;;;;;;6.73;77.67;98641.72;5095190;28;20213;-90
2022/04/19 08:59:41;;;;;;;15.90;9.33;;;;;;;7.74;75.41;98758.78;5096564;28;20168;-89
2022/04/19 09:02:17;;;;;;;19.57;10.70;;;;;;;7.97;73.56;98759.78;5095093;28;20686;-89
2022/04/19 09:04:43;;;;;;;19.80;11.13;;;;;;;8.15;73.25;98652.19;5094280;28;20203;-90
2022/04/19 09:07:08;;;;;;;9.57;6.40;;;;;;;10.84;70.24;99094.09;5095510;28;20611;-90
2022/04/19 09:09:35;;;;;;;22.63;15.57;;;;;;;8.22;69.55;98613.81;5094271;28;20179;-88
2022/04/19 09:12:10;;;;;;;9.30;6.30;;;;;;;8.96;71.25;98702.56;5093896;28;20148;-89
2022/04/19 09:14:37;;;;;;;10.90;6.77;;;;;;;10.23;68.18;98848.88;5094040;28;20167;-89
2022/04/19 09:17:08;;;;;;;19.27;10.03;;;;;;;10.58;70.78;99078.78;5098896;28;20168;-90
2022/04/19 09:19:34;;;;;;;10.77;6.77;;;;;;;8.50;69.77;98556.13;5097810;28;20164;-89
2022/04/19 09:22:00;;;;;;;6.53;4.60;;;;;;;8.52;66.02;98437.63;5084376;28;20746;-90
2022/04/19 09:24:27;;;;;;;7.07;5.57;;;;;;;10.75;65.80;98826.25;5114399;28;20192;-89
2022/04/19 09:26:53;;;;;;;10.63;6.90;;;;;;;12.01;68.10;99064.47;5116550;28;20225;-89
2022/04/19 09:29:24;;;;;;;9.30;6.23;;;;;;;8.84;66.67;98500.22;5096917;28;20168;-90
2022/04/19 09:31:52;;;;;;;8.37;6.00;;;;;;;7.89;68.76;98516.69;5100706;28;20167;-90
2022/04/19 09:34:25;;;;;;;7.93;5.90;;;;;;;11.01;69.05;99075.31;5104284;28;20157;-89
2022/04/19 09:37:10;;;;;;;13.27;8.23;;;;;;;8.99;69.32;98714.44;5102602;28;20175;-90
2022/04/19 09:39:41;;;;;;;6.57;4.90;;;;;;;11.47;68.18;99072.75;5102052;28;20172;-90
2022/04/19 09:42:11;;;;;;;8.93;6.77;;;;;;;11.47;65.83;99067.69;5098938;28;20166;-89
2022/04/19 09:44:50;;;;;;;7.87;5.40;;;;;;;8.58;66.08;98574.06;5096604;28;20191;-89
2022/04/19 09:47:16;;;;;;;8.10;5.50;;;;;;;9.23;69.55;98864.38;5098149;28;20175;-89
2022/04/19 09:49:42;;;;;;;15.70;8.47;;;;;;;10.25;71.39;99072.41;5099648;28;20250;-88
2022/04/19 09:52:07;;;;;;;11.17;6.87;;;;;;;7.93;71.77;98751.25;5116057;28;20175;-88
2022/04/19 09:54:33;;;;;;;10.33;6.57;;;;;;;8.28;71.96;98727.56;5108122;28;20660;-89
2022/04/19 09:57:07;;;;;;;9.00;5.60;;;;;;;11.55;70.39;99067.13;5098889;28;20180;-89
2022/04/19 09:59:46;;;;;;;6.90;5.00;;;;;;;9.20;65.84;98500.63;5098590;28;20194;-89
2022/04/19 10:10:28;;;;;;;9.07;4.67;;;;;;;12.44;57.40;98889.84;5104892;28;20167;-88
2022/04/19 10:12:56;;;;;;;7.50;4.73;;;;;;;12.88;58.22;99028.22;5102461;28;20187;-88
2022/04/19 10:15:22;;;;;;;8.40;4.90;;;;;;;11.34;58.91;98810.47;5101735;28;20255;-89
2022/04/19 10:17:49;;;;;;;8.60;5.80;;;;;;;10.26;60.59;98688.78;5105301;28;20175;-89
2022/04/19 10:20:15;;;;;;;11.00;7.90;;;;;;;12.40;61.68;99054.72;5108008;28;20176;-88
2022/04/19 10:22:48;;;;;;;7.73;4.80;;;;;;;8.94;61.26;98429.06;5103040;28;20615;-90
2022/04/19 10:25:14;;;;;;;6.37;4.40;;;;;;;11.78;58.23;98839.72;5097823;28;20191;-88
2022/04/19 10:27:39;;;;;;;8.83;5.20;;;;;;;10.41;57.27;98639.53;5097843;28;20194;-89
2022/04/19 10:30:06;;;;;;;11.40;5.93;;;;;;;10.93;58.43;98705.28;5099193;28;20182;-87
2022/04/19 10:32:33;;;;;;;4.33;3.80;;;;;;;12.66;54.82;98920.94;5105839;28;20174;-89
2022/04/19 10:35:04;;;;;;;5.13;4.23;;;;;;;12.98;58.40;99083.59;5101271;28;20192;-90
2022/04/19 10:37:29;;;;;;;5.67;4.50;;;;;;;9.40;57.11;98370.81;5094347;28;20187;-90
2022/04/19 10:39:58;;;;;;;7.30;5.03;;;;;;;12.98;58.19;99037.84;5131859;27;20180;-88
2022/04/19 10:42:37;;;;;;;13.17;5.13;;;;;;;13.00;57.76;99036.22;5101835;28;20544;-89
2022/04/19 10:45:15;;;;;;;7.37;4.87;;;;;;;12.98;58.76;99032.78;5095738;28;20191;-90
2022/04/19 10:47:56;;;;;;;6.03;4.47;;;;;;;12.13;57.74;98874.59;5094417;28;20175;-88
2022/04/19 10:50:34;;;;;;;5.37;4.20;;;;;;;9.93;59.96;98679.22;5095436;28;20221;-90
2022/04/19 10:53:05;;;;;;;8.33;4.80;;;;;;;9.90;60.49;98679.09;5095069;28;20654;-88
2022/04/19 10:55:35;;;;;;;29.70;15.63;;;;;;;12.42;60.45;99013.34;5095121;28;20242;-89
2022/04/19 10:58:06;;;;;;;6.77;5.10;;;;;;;12.74;60.57;99026.13;5094723;28;20172;-89
2022/04/19 11:00:35;;;;;;;9.03;5.33;;;;;;;13.07;59.70;99018.59;5094793;28;20621;-90
2022/04/19 11:03:13;;;;;;;7.07;4.83;;;;;;;13.11;58.41;99017.88;5094470;28;20246;-88
2022/04/19 11:05:46;;;;;;;4.70;4.20;;;;;;;12.86;57.35;98995.97;5095964;28;20190;-89
2022/04/19 11:08:26;;;;;;;6.93;4.50;;;;;;;12.63;59.21;98981.78;5094512;28;20635;-89
2022/04/19 11:10:52;;;;;;;6.60;4.60;;;;;;;12.88;58.12;99027.41;5096864;28;20203;-88
2022/04/19 11:13:28;;;;;;;6.20;4.20;;;;;;;8.74;57.78;98311.44;5094468;28;20172;-89
2022/04/19 11:15:59;;;;;;;9.90;5.10;;;;;;;13.32;57.34;99019.31;5096411;28;20185;-89
2022/04/19 11:18:52;;;;;;;7.53;5.03;;;;;;;10.32;55.07;98539.72;5102595;28;20178;-89
2022/04/19 11:21:51;;;;;;;4.47;3.77;;;;;;;9.97;55.27;98486.34;5069552;28;20197;-87
2022/04/19 11:24:54;;;;;;;5.43;4.20;;;;;;;14.13;54.82;99029.84;5071966;28;20254;-87
2022/04/19 11:27:20;;;;;;;4.60;3.83;;;;;;;11.49;52.65;98569.25;5065670;28;20237;-88
2022/04/19 11:29:50;;;;;;;4.83;3.50;;;;;;;11.49;52.34;98663.91;5057318;28;20652;-87
2022/04/19 11:32:23;;;;;;;6.67;5.00;;;;;;;11.99;51.54;98736.34;5053840;28;20779;-86
2022/04/19 11:35:01;;;;;;;9.70;5.27;;;;;;;13.39;51.91;98987.28;5041359;28;20169;-89
2022/04/19 11:37:29;;;;;;;5.67;4.00;;;;;;;13.48;51.96;99030.78;5041903;28;20181;-89
2022/04/19 11:48:27;;;;;;;8.80;5.30;;;;;;;11.84;52.95;98710.53;5058772;28;20192;-88
2022/04/19 11:50:53;;;;;;;7.43;5.00;;;;;;;13.44;52.68;99034.91;5055582;28;20185;-89
2022/04/19 11:53:24;;;;;;;10.60;7.07;;;;;;;13.02;54.05;99054.03;5054613;28;20191;-89
2022/04/19 11:55:52;;;;;;;7.43;4.07;;;;;;;11.44;54.09;98840.31;5035303;28;20185;-90
2022/04/19 11:58:22;;;;;;;4.50;3.67;;;;;;;9.53;53.53;98556.50;5069790;28;20560;-90
2022/04/19 12:00:59;;;;;;;5.30;3.87;;;;;;;11.74;55.03;98898.75;5095577;28;20176;-90
2022/04/19 12:03:27;;;;;;;4.90;4.00;;;;;;;9.17;55.17;98493.81;5096657;28;20223;-88
2022/04/19 12:05:54;;;;;;;6.20;4.13;;;;;;;10.40;56.04;98713.72;5098644;28;20292;-89
2022/04/19 12:08:33;;;;;;;6.07;4.10;;;;;;;10.15;56.55;98706.13;5098236;28;20199;-88
2022/04/19 12:11:03;;;;;;;5.73;4.17;;;;;;;11.42;58.37;99005.84;5104611;28;20167;-88
2022/04/19 12:13:29;;;;;;;35.57;18.47;;;;;;;8.55;60.28;98574.81;5067132;22;20234;-88
2022/04/19 12:15:54;;;;;;;12.83;4.90;;;;;;;9.31;70.00;98932.06;5028433;28;20665;-90